sensor_id;sensor_type;location;lat;lon;timestamp;pressure;altitude;pressure_sealevel;temperature;humidity
55347;BME280;41218;55.700;38.270;2023-03-13T00:03:51;98403.59;;;-3.51;74.22
55347;BME280;41218;55.700;38.270;2023-03-13T00:08:54;98403.25;;;-3.58;74.00
55347;BME280;41218;55.700;38.270;2023-03-13T00:13:57;98429.22;;;-3.48;73.88
55347;BME280;41218;55.700;38.270;2023-03-13T00:18:57;98436.19;;;-3.47;74.64
55347;BME280;41218;55.700;38.270;2023-03-13T00:23:59;98441.47;;;-3.42;74.45
55347;BME280;41218;55.700;38.270;2023-03-13T00:29:00;98441.78;;;-3.44;74.20
55347;BME280;41218;55.700;38.270;2023-03-13T00:34:01;98462.16;;;-3.37;74.38
55347;BME280;41218;55.700;38.270;2023-03-13T00:39:04;98462.03;;;-3.32;74.09
55347;BME280;41218;55.700;38.270;2023-03-13T00:44:05;98470.63;;;-3.30;73.83
55347;BME280;41218;55.700;38.270;2023-03-13T00:49:05;98471.91;;;-3.28;74.03
55347;BME280;41218;55.700;38.270;2023-03-13T00:54:06;98486.09;;;-3.22;74.05
55347;BME280;41218;55.700;38.270;2023-03-13T00:59:06;98479.88;;;-3.23;73.99
55347;BME280;41218;55.700;38.270;2023-03-13T01:04:09;98480.03;;;-3.28;73.73
55347;BME280;41218;55.700;38.270;2023-03-13T01:09:13;98505.94;;;-3.27;73.83
55347;BME280;41218;55.700;38.270;2023-03-13T01:14:16;98515.16;;;-3.28;73.60
55347;BME280;41218;55.700;38.270;2023-03-13T01:19:18;98507.34;;;-3.29;73.63
55347;BME280;41218;55.700;38.270;2023-03-13T01:24:18;98528.66;;;-3.28;73.69
55347;BME280;41218;55.700;38.270;2023-03-13T01:29:19;98536.28;;;-3.30;73.84
55347;BME280;41218;55.700;38.270;2023-03-13T01:34:20;98544.69;;;-3.31;73.53
55347;BME280;41218;55.700;38.270;2023-03-13T01:39:20;98565.38;;;-3.27;73.66
55347;BME280;41218;55.700;38.270;2023-03-13T01:44:24;98576.19;;;-3.27;73.90
55347;BME280;41218;55.700;38.270;2023-03-13T01:49:30;98585.59;;;-3.24;73.94
55347;BME280;41218;55.700;38.270;2023-03-13T01:54:39;98598.50;;;-3.21;73.99
55347;BME280;41218;55.700;38.270;2023-03-13T01:59:48;98608.13;;;-3.29;73.38
55347;BME280;41218;55.700;38.270;2023-03-13T02:04:57;98629.16;;;-3.26;73.24
55347;BME280;41218;55.700;38.270;2023-03-13T02:10:00;98638.34;;;-3.27;73.04
55347;BME280;41218;55.700;38.270;2023-03-13T02:15:04;98645.66;;;-3.27;73.16
55347;BME280;41218;55.700;38.270;2023-03-13T02:20:05;98650.38;;;-3.33;73.58
55347;BME280;41218;55.700;38.270;2023-03-13T02:30:19;98667.50;;;-3.37;73.23
55347;BME280;41218;55.700;38.270;2023-03-13T02:35:21;98685.44;;;-3.42;72.89
55347;BME280;41218;55.700;38.270;2023-03-13T02:40:30;98696.94;;;-3.50;73.50
55347;BME280;41218;55.700;38.270;2023-03-13T02:45:32;98701.78;;;-3.60;73.54
55347;BME280;41218;55.700;38.270;2023-03-13T02:50:34;98702.47;;;-3.69;73.47
55347;BME280;41218;55.700;38.270;2023-03-13T02:55:39;98707.69;;;-3.72;73.01
55347;BME280;41218;55.700;38.270;2023-03-13T03:00:40;98726.47;;;-3.67;73.10
55347;BME280;41218;55.700;38.270;2023-03-13T03:05:40;98735.28;;;-3.75;73.16
55347;BME280;41218;55.700;38.270;2023-03-13T03:10:41;98753.19;;;-3.79;73.16
55347;BME280;41218;55.700;38.270;2023-03-13T03:15:41;98743.75;;;-3.96;73.12
55347;BME280;41218;55.700;38.270;2023-03-13T03:20:42;98768.28;;;-3.92;72.84
55347;BME280;41218;55.700;38.270;2023-03-13T03:25:42;98776.94;;;-3.95;73.11
55347;BME280;41218;55.700;38.270;2023-03-13T03:30:43;98777.84;;;-4.00;72.93
55347;BME280;41218;55.700;38.270;2023-03-13T03:35:44;98780.66;;;-4.05;73.61
55347;BME280;41218;55.700;38.270;2023-03-13T03:40:45;98788.25;;;-4.07;73.17
55347;BME280;41218;55.700;38.270;2023-03-13T03:45:45;98794.72;;;-4.08;73.26
55347;BME280;41218;55.700;38.270;2023-03-13T03:50:46;98790.22;;;-4.13;73.13
55347;BME280;41218;55.700;38.270;2023-03-13T03:55:46;98794.13;;;-4.19;73.70
55347;BME280;41218;55.700;38.270;2023-03-13T04:00:47;98809.69;;;-4.16;73.02
55347;BME280;41218;55.700;38.270;2023-03-13T04:05:48;98810.19;;;-4.14;73.76
55347;BME280;41218;55.700;38.270;2023-03-13T04:10:48;98823.78;;;-4.19;73.39
55347;BME280;41218;55.700;38.270;2023-03-13T04:15:49;98830.09;;;-4.24;73.37
55347;BME280;41218;55.700;38.270;2023-03-13T04:20:49;98839.34;;;-4.30;72.95
55347;BME280;41218;55.700;38.270;2023-03-13T04:25:50;98837.84;;;-4.36;73.48
55347;BME280;41218;55.700;38.270;2023-03-13T04:30:51;98853.63;;;-4.29;73.07
55347;BME280;41218;55.700;38.270;2023-03-13T04:35:56;98861.22;;;-4.31;73.24
55347;BME280;41218;55.700;38.270;2023-03-13T04:40:56;98861.00;;;-4.35;72.99
55347;BME280;41218;55.700;38.270;2023-03-13T04:45:57;98873.41;;;-4.34;73.61
55347;BME280;41218;55.700;38.270;2023-03-13T04:50:57;98891.63;;;-4.26;73.51
55347;BME280;41218;55.700;38.270;2023-03-13T04:55:58;98900.53;;;-4.25;73.20
55347;BME280;41218;55.700;38.270;2023-03-13T05:00:58;98905.31;;;-4.22;73.04
55347;BME280;41218;55.700;38.270;2023-03-13T05:05:59;98911.22;;;-4.20;73.50
55347;BME280;41218;55.700;38.270;2023-03-13T05:10:59;98929.84;;;-4.18;73.23
55347;BME280;41218;55.700;38.270;2023-03-13T05:16:00;98926.63;;;-4.20;73.33
55347;BME280;41218;55.700;38.270;2023-03-13T05:21:01;98948.44;;;-4.17;72.79
55347;BME280;41218;55.700;38.270;2023-03-13T05:26:02;98955.13;;;-4.14;73.29
55347;BME280;41218;55.700;38.270;2023-03-13T05:31:03;98957.78;;;-4.09;73.02
55347;BME280;41218;55.700;38.270;2023-03-13T05:36:03;98973.59;;;-4.03;73.13
55347;BME280;41218;55.700;38.270;2023-03-13T05:41:04;98970.53;;;-3.96;73.01
55347;BME280;41218;55.700;38.270;2023-03-13T05:46:04;98986.44;;;-3.94;72.78
55347;BME280;41218;55.700;38.270;2023-03-13T05:51:05;98993.16;;;-3.92;72.94
55347;BME280;41218;55.700;38.270;2023-03-13T05:56:06;98983.69;;;-3.89;73.06
55347;BME280;41218;55.700;38.270;2023-03-13T06:01:08;99001.03;;;-3.76;72.79
55347;BME280;41218;55.700;38.270;2023-03-13T06:06:09;99012.75;;;-3.67;73.24
55347;BME280;41218;55.700;38.270;2023-03-13T06:11:10;99011.56;;;-3.61;72.72
55347;BME280;41218;55.700;38.270;2023-03-13T06:16:10;99016.25;;;-3.48;72.63
55347;BME280;41218;55.700;38.270;2023-03-13T06:21:11;99016.47;;;-3.44;72.31
55347;BME280;41218;55.700;38.270;2023-03-13T06:26:11;99027.81;;;-3.28;72.71
55347;BME280;41218;55.700;38.270;2023-03-13T06:31:12;99031.72;;;-3.20;72.30
55347;BME280;41218;55.700;38.270;2023-03-13T06:36:13;99049.09;;;-3.08;72.12
55347;BME280;41218;55.700;38.270;2023-03-13T06:41:13;99050.22;;;-2.95;71.85
55347;BME280;41218;55.700;38.270;2023-03-13T06:46:19;99059.34;;;-2.91;71.63
55347;BME280;41218;55.700;38.270;2023-03-13T06:51:21;99063.78;;;-2.81;71.37
55347;BME280;41218;55.700;38.270;2023-03-13T06:56:21;99067.88;;;-2.70;71.49
55347;BME280;41218;55.700;38.270;2023-03-13T07:01:22;99078.44;;;-2.54;71.54
55347;BME280;41218;55.700;38.270;2023-03-13T07:06:23;99093.69;;;-2.45;71.02
55347;BME280;41218;55.700;38.270;2023-03-13T07:11:23;99097.28;;;-2.35;71.29
55347;BME280;41218;55.700;38.270;2023-03-13T07:16:25;99104.53;;;-2.31;70.66
55347;BME280;41218;55.700;38.270;2023-03-13T07:21:25;99106.72;;;-2.19;70.60
55347;BME280;41218;55.700;38.270;2023-03-13T07:26:26;99118.38;;;-2.05;70.46
55347;BME280;41218;55.700;38.270;2023-03-13T07:31:26;99125.97;;;-1.93;70.01
55347;BME280;41218;55.700;38.270;2023-03-13T07:36:29;99123.16;;;-1.88;70.09
55347;BME280;41218;55.700;38.270;2023-03-13T07:41:30;99135.38;;;-1.76;68.87
55347;BME280;41218;55.700;38.270;2023-03-13T07:46:30;99140.78;;;-1.63;69.63
55347;BME280;41218;55.700;38.270;2023-03-13T07:51:31;99153.59;;;-1.41;69.49
55347;BME280;41218;55.700;38.270;2023-03-13T07:56:31;99156.75;;;-1.25;68.79
55347;BME280;41218;55.700;38.270;2023-03-13T08:01:32;99162.03;;;-1.06;68.94
55347;BME280;41218;55.700;38.270;2023-03-13T08:06:33;99166.09;;;-0.94;68.36
55347;BME280;41218;55.700;38.270;2023-03-13T08:11:39;99176.16;;;-0.72;68.27
55347;BME280;41218;55.700;38.270;2023-03-13T08:16:43;99187.50;;;-0.70;67.29
55347;BME280;41218;55.700;38.270;2023-03-13T08:21:44;99189.59;;;-0.67;67.08
55347;BME280;41218;55.700;38.270;2023-03-13T08:26:44;99200.53;;;-0.58;66.48
55347;BME280;41218;55.700;38.270;2023-03-13T08:31:49;99201.88;;;-0.47;66.38
55347;BME280;41218;55.700;38.270;2023-03-13T08:36:53;99208.09;;;-0.47;65.95
55347;BME280;41218;55.700;38.270;2023-03-13T08:41:53;99201.75;;;-0.42;66.25
55347;BME280;41218;55.700;38.270;2023-03-13T08:46:54;99199.53;;;-0.40;65.92
55347;BME280;41218;55.700;38.270;2023-03-13T08:51:56;99206.41;;;-0.43;64.26
55347;BME280;41218;55.700;38.270;2023-03-13T08:56:56;99208.78;;;-0.41;65.92
55347;BME280;41218;55.700;38.270;2023-03-13T09:01:57;99211.97;;;-0.39;65.55
55347;BME280;41218;55.700;38.270;2023-03-13T09:06:57;99209.25;;;-0.39;65.19
55347;BME280;41218;55.700;38.270;2023-03-13T09:11:58;99226.47;;;-0.21;64.83
55347;BME280;41218;55.700;38.270;2023-03-13T09:16:58;99223.06;;;-0.27;64.79
55347;BME280;41218;55.700;38.270;2023-03-13T09:21:59;99229.94;;;-0.29;64.58
55347;BME280;41218;55.700;38.270;2023-03-13T09:27:00;99234.84;;;-0.40;64.48
55347;BME280;41218;55.700;38.270;2023-03-13T09:32:00;99241.59;;;-0.51;62.46
55347;BME280;41218;55.700;38.270;2023-03-13T09:37:01;99252.56;;;-0.43;64.30
55347;BME280;41218;55.700;38.270;2023-03-13T09:42:12;99253.28;;;-0.28;63.88
55347;BME280;41218;55.700;38.270;2023-03-13T09:47:17;99249.72;;;-0.06;63.94
55347;BME280;41218;55.700;38.270;2023-03-13T09:52:23;99266.56;;;0.05;63.74
55347;BME280;41218;55.700;38.270;2023-03-13T09:57:30;99274.47;;;0.15;63.33
55347;BME280;41218;55.700;38.270;2023-03-13T10:02:36;99281.47;;;0.16;63.64
55347;BME280;41218;55.700;38.270;2023-03-13T10:07:36;99276.91;;;0.25;63.56
55347;BME280;41218;55.700;38.270;2023-03-13T10:12:43;99280.59;;;0.29;63.31
55347;BME280;41218;55.700;38.270;2023-03-13T10:17:44;99286.13;;;0.47;63.44
55347;BME280;41218;55.700;38.270;2023-03-13T10:22:45;99298.72;;;0.43;62.99
55347;BME280;41218;55.700;38.270;2023-03-13T10:27:49;99295.88;;;0.48;62.79
55347;BME280;41218;55.700;38.270;2023-03-13T10:32:53;99312.38;;;0.51;62.48
55347;BME280;41218;55.700;38.270;2023-03-13T10:38:01;99318.13;;;0.50;62.92
55347;BME280;41218;55.700;38.270;2023-03-13T10:43:19;99319.41;;;0.52;61.78
55347;BME280;41218;55.700;38.270;2023-03-13T10:48:21;99336.06;;;0.51;62.31
55347;BME280;41218;55.700;38.270;2023-03-13T10:58:35;99329.13;;;0.13;61.90
55347;BME280;41218;55.700;38.270;2023-03-13T11:03:36;99348.09;;;0.05;62.63
55347;BME280;41218;55.700;38.270;2023-03-13T11:08:40;99351.66;;;-0.09;62.56
55347;BME280;41218;55.700;38.270;2023-03-13T11:13:42;99359.38;;;-0.02;63.08
55347;BME280;41218;55.700;38.270;2023-03-13T11:35:00;99375.50;;;-0.06;62.40
55347;BME280;41218;55.700;38.270;2023-03-13T11:50:36;99402.56;;;-0.01;61.90
55347;BME280;41218;55.700;38.270;2023-03-13T12:01:06;99421.97;;;-0.30;62.65
55347;BME280;41218;55.700;38.270;2023-03-13T12:06:28;99430.63;;;-0.28;63.05
55347;BME280;41218;55.700;38.270;2023-03-13T12:11:37;99423.97;;;-0.22;63.09
55347;BME280;41218;55.700;38.270;2023-03-13T12:17:04;99439.63;;;-0.18;63.06
55347;BME280;41218;55.700;38.270;2023-03-13T12:22:18;99437.53;;;-0.22;63.30
55347;BME280;41218;55.700;38.270;2023-03-13T12:27:30;99438.84;;;-0.19;62.87
55347;BME280;41218;55.700;38.270;2023-03-13T12:33:16;99436.13;;;-0.19;62.98
55347;BME280;41218;55.700;38.270;2023-03-13T12:38:25;99442.97;;;-0.22;62.54
55347;BME280;41218;55.700;38.270;2023-03-13T12:43:33;99448.50;;;-0.27;62.83
55347;BME280;41218;55.700;38.270;2023-03-13T12:59:37;99472.38;;;-0.65;63.56
55347;BME280;41218;55.700;38.270;2023-03-13T13:04:45;99472.38;;;-0.65;63.99
55347;BME280;41218;55.700;38.270;2023-03-13T13:25:33;99477.72;;;-0.60;64.58
55347;BME280;41218;55.700;38.270;2023-03-13T13:30:34;99491.09;;;-0.50;63.91
55347;BME280;41218;55.700;38.270;2023-03-13T13:35:35;99490.59;;;-0.52;63.89
55347;BME280;41218;55.700;38.270;2023-03-13T13:40:36;99487.06;;;-0.52;63.57
55347;BME280;41218;55.700;38.270;2023-03-13T13:46:04;99496.94;;;-0.56;63.34
55347;BME280;41218;55.700;38.270;2023-03-13T14:01:32;99502.03;;;-0.55;63.34
55347;BME280;41218;55.700;38.270;2023-03-13T14:06:35;99516.94;;;-0.52;62.99
55347;BME280;41218;55.700;38.270;2023-03-13T14:11:37;99522.66;;;-0.54;62.66
55347;BME280;41218;55.700;38.270;2023-03-13T14:16:38;99528.09;;;-0.54;62.77
55347;BME280;41218;55.700;38.270;2023-03-13T14:21:42;99538.25;;;-0.59;62.50
55347;BME280;41218;55.700;38.270;2023-03-13T14:26:43;99543.97;;;-0.75;62.46
55347;BME280;41218;55.700;38.270;2023-03-13T14:31:53;99547.38;;;-0.83;62.09
55347;BME280;41218;55.700;38.270;2023-03-13T14:36:58;99558.38;;;-0.93;61.45
55347;BME280;41218;55.700;38.270;2023-03-13T14:47:07;99561.66;;;-1.10;61.74
55347;BME280;41218;55.700;38.270;2023-03-13T14:52:19;99573.13;;;-1.13;61.57
55347;BME280;41218;55.700;38.270;2023-03-13T14:57:23;99569.69;;;-1.19;61.71
55347;BME280;41218;55.700;38.270;2023-03-13T15:02:30;99577.31;;;-1.21;61.23
55347;BME280;41218;55.700;38.270;2023-03-13T15:07:52;99589.03;;;-1.26;61.38
55347;BME280;41218;55.700;38.270;2023-03-13T15:12:53;99597.47;;;-1.27;61.35
55347;BME280;41218;55.700;38.270;2023-03-13T15:17:54;99601.59;;;-1.30;61.56
55347;BME280;41218;55.700;38.270;2023-03-13T15:22:54;99622.75;;;-1.32;61.66
55347;BME280;41218;55.700;38.270;2023-03-13T15:27:55;99617.69;;;-1.38;61.21
55347;BME280;41218;55.700;38.270;2023-03-13T15:32:56;99627.66;;;-1.34;61.50
55347;BME280;41218;55.700;38.270;2023-03-13T15:37:58;99627.75;;;-1.39;61.77
55347;BME280;41218;55.700;38.270;2023-03-13T15:42:59;99628.91;;;-1.45;61.41
55347;BME280;41218;55.700;38.270;2023-03-13T15:47:59;99627.13;;;-1.55;61.49
55347;BME280;41218;55.700;38.270;2023-03-13T15:53:00;99633.16;;;-1.58;61.83
55347;BME280;41218;55.700;38.270;2023-03-13T15:58:01;99649.75;;;-1.65;61.54
55347;BME280;41218;55.700;38.270;2023-03-13T16:03:02;99657.91;;;-1.65;61.90
55347;BME280;41218;55.700;38.270;2023-03-13T16:08:02;99657.19;;;-1.70;61.72
55347;BME280;41218;55.700;38.270;2023-03-13T16:13:03;99675.97;;;-1.79;62.09
55347;BME280;41218;55.700;38.270;2023-03-13T16:18:04;99682.00;;;-1.87;62.24
55347;BME280;41218;55.700;38.270;2023-03-13T16:23:05;99680.75;;;-1.95;62.83
55347;BME280;41218;55.700;38.270;2023-03-13T16:28:06;99683.69;;;-1.91;62.96
55347;BME280;41218;55.700;38.270;2023-03-13T16:33:06;99688.59;;;-1.93;62.72
55347;BME280;41218;55.700;38.270;2023-03-13T16:38:09;99685.34;;;-1.95;63.02
55347;BME280;41218;55.700;38.270;2023-03-13T16:43:11;99687.03;;;-1.99;62.91
55347;BME280;41218;55.700;38.270;2023-03-13T16:48:12;99698.97;;;-2.00;63.27
55347;BME280;41218;55.700;38.270;2023-03-13T16:53:15;99704.72;;;-2.07;63.58
55347;BME280;41218;55.700;38.270;2023-03-13T16:58:16;99703.16;;;-2.13;63.62
55347;BME280;41218;55.700;38.270;2023-03-13T17:03:16;99708.88;;;-2.15;63.76
55347;BME280;41218;55.700;38.270;2023-03-13T17:08:17;99718.34;;;-2.17;64.04
55347;BME280;41218;55.700;38.270;2023-03-13T17:13:17;99710.31;;;-2.23;64.11
55347;BME280;41218;55.700;38.270;2023-03-13T17:18:19;99716.25;;;-2.20;64.35
55347;BME280;41218;55.700;38.270;2023-03-13T17:23:20;99722.22;;;-2.24;64.88
55347;BME280;41218;55.700;38.270;2023-03-13T17:28:20;99724.97;;;-2.29;65.08
55347;BME280;41218;55.700;38.270;2023-03-13T17:33:21;99712.91;;;-2.42;65.22
55347;BME280;41218;55.700;38.270;2023-03-13T17:38:21;99735.31;;;-2.36;65.28
55347;BME280;41218;55.700;38.270;2023-03-13T17:43:22;99739.69;;;-2.40;65.22
55347;BME280;41218;55.700;38.270;2023-03-13T17:48:22;99742.16;;;-2.44;65.67
55347;BME280;41218;55.700;38.270;2023-03-13T17:53:26;99748.41;;;-2.48;65.48
55347;BME280;41218;55.700;38.270;2023-03-13T17:58:27;99754.69;;;-2.53;65.74
55347;BME280;41218;55.700;38.270;2023-03-13T18:03:27;99752.25;;;-2.54;65.86
55347;BME280;41218;55.700;38.270;2023-03-13T18:08:28;99755.53;;;-2.57;65.98
55347;BME280;41218;55.700;38.270;2023-03-13T18:13:28;99757.19;;;-2.62;65.86
55347;BME280;41218;55.700;38.270;2023-03-13T18:18:29;99753.19;;;-2.69;66.08
55347;BME280;41218;55.700;38.270;2023-03-13T18:23:29;99765.66;;;-2.73;66.27
55347;BME280;41218;55.700;38.270;2023-03-13T18:28:30;99747.34;;;-2.87;66.27
55347;BME280;41218;55.700;38.270;2023-03-13T18:33:31;99766.25;;;-2.82;66.67
55347;BME280;41218;55.700;38.270;2023-03-13T18:38:31;99773.31;;;-2.86;66.39
55347;BME280;41218;55.700;38.270;2023-03-13T18:43:32;99776.03;;;-2.91;66.82
55347;BME280;41218;55.700;38.270;2023-03-13T18:48:32;99776.63;;;-2.99;66.49
55347;BME280;41218;55.700;38.270;2023-03-13T18:53:33;99774.25;;;-3.06;67.01
55347;BME280;41218;55.700;38.270;2023-03-13T18:58:33;99773.72;;;-3.08;66.89
55347;BME280;41218;55.700;38.270;2023-03-13T19:03:34;99774.00;;;-3.14;66.91
55347;BME280;41218;55.700;38.270;2023-03-13T19:08:34;99786.47;;;-3.18;67.11
55347;BME280;41218;55.700;38.270;2023-03-13T19:13:35;99789.75;;;-3.27;67.34
55347;BME280;41218;55.700;38.270;2023-03-13T19:18:37;99806.25;;;-3.28;67.10
55347;BME280;41218;55.700;38.270;2023-03-13T19:23:38;99800.84;;;-3.33;67.33
55347;BME280;41218;55.700;38.270;2023-03-13T19:28:38;99800.59;;;-3.37;67.59
55347;BME280;41218;55.700;38.270;2023-03-13T19:33:39;99813.03;;;-3.41;67.87
55347;BME280;41218;55.700;38.270;2023-03-13T19:38:40;99812.50;;;-3.43;67.56
55347;BME280;41218;55.700;38.270;2023-03-13T19:43:41;99826.31;;;-3.50;67.82
55347;BME280;41218;55.700;38.270;2023-03-13T19:48:42;99820.91;;;-3.55;67.73
55347;BME280;41218;55.700;38.270;2023-03-13T19:53:42;99822.84;;;-3.60;67.63
55347;BME280;41218;55.700;38.270;2023-03-13T19:58:47;99813.38;;;-3.63;68.45
55347;BME280;41218;55.700;38.270;2023-03-13T20:03:48;99812.28;;;-3.67;67.96
55347;BME280;41218;55.700;38.270;2023-03-13T20:08:53;99809.63;;;-3.72;67.75
55347;BME280;41218;55.700;38.270;2023-03-13T20:13:54;99821.53;;;-3.78;67.81
55347;BME280;41218;55.700;38.270;2023-03-13T20:18:57;99815.88;;;-3.87;68.22
55347;BME280;41218;55.700;38.270;2023-03-13T20:23:58;99826.69;;;-3.87;68.07
55347;BME280;41218;55.700;38.270;2023-03-13T20:28:58;99823.69;;;-3.96;68.46
55347;BME280;41218;55.700;38.270;2023-03-13T20:33:59;99836.66;;;-3.98;68.52
55347;BME280;41218;55.700;38.270;2023-03-13T20:39:00;99832.88;;;-4.02;68.59
55347;BME280;41218;55.700;38.270;2023-03-13T20:44:00;99836.66;;;-4.08;68.36
55347;BME280;41218;55.700;38.270;2023-03-13T20:49:01;99827.75;;;-4.14;68.34
55347;BME280;41218;55.700;38.270;2023-03-13T20:54:01;99822.66;;;-4.26;68.17
55347;BME280;41218;55.700;38.270;2023-03-13T20:59:02;99825.06;;;-4.34;68.21
55347;BME280;41218;55.700;38.270;2023-03-13T21:04:03;99814.81;;;-4.37;68.29
55347;BME280;41218;55.700;38.270;2023-03-13T21:09:04;99804.81;;;-4.52;68.82
55347;BME280;41218;55.700;38.270;2023-03-13T21:14:04;99809.41;;;-4.58;68.21
55347;BME280;41218;55.700;38.270;2023-03-13T21:19:05;99807.50;;;-4.63;68.65
55347;BME280;41218;55.700;38.270;2023-03-13T21:24:05;99810.19;;;-4.68;68.55
55347;BME280;41218;55.700;38.270;2023-03-13T21:29:06;99813.41;;;-4.76;68.45
55347;BME280;41218;55.700;38.270;2023-03-13T21:34:08;99811.25;;;-4.84;68.93
55347;BME280;41218;55.700;38.270;2023-03-13T21:39:09;99819.59;;;-4.86;68.99
55347;BME280;41218;55.700;38.270;2023-03-13T21:44:11;99823.88;;;-4.95;69.00
55347;BME280;41218;55.700;38.270;2023-03-13T21:49:11;99833.31;;;-4.97;68.63
55347;BME280;41218;55.700;38.270;2023-03-13T21:54:12;99834.91;;;-5.01;68.77
55347;BME280;41218;55.700;38.270;2023-03-13T21:59:13;99822.75;;;-5.14;68.82
55347;BME280;41218;55.700;38.270;2023-03-13T22:04:13;99823.81;;;-5.15;68.95
55347;BME280;41218;55.700;38.270;2023-03-13T22:09:14;99827.59;;;-5.16;68.92
55347;BME280;41218;55.700;38.270;2023-03-13T22:14:14;99815.16;;;-5.22;68.78
55347;BME280;41218;55.700;38.270;2023-03-13T22:19:15;99818.91;;;-5.29;68.79
55347;BME280;41218;55.700;38.270;2023-03-13T22:24:18;99816.44;;;-5.35;69.19
55347;BME280;41218;55.700;38.270;2023-03-13T22:29:19;99811.31;;;-5.42;69.15
55347;BME280;41218;55.700;38.270;2023-03-13T22:34:19;99813.16;;;-5.48;68.73
55347;BME280;41218;55.700;38.270;2023-03-13T22:39:20;99806.66;;;-5.52;69.03
55347;BME280;41218;55.700;38.270;2023-03-13T22:44:21;99786.41;;;-5.65;69.13
55347;BME280;41218;55.700;38.270;2023-03-13T22:49:21;99795.59;;;-5.60;69.00
55347;BME280;41218;55.700;38.270;2023-03-13T22:54:22;99780.78;;;-5.63;68.79
55347;BME280;41218;55.700;38.270;2023-03-13T22:59:22;99784.25;;;-5.68;68.88
55347;BME280;41218;55.700;38.270;2023-03-13T23:04:23;99770.22;;;-5.75;69.06
55347;BME280;41218;55.700;38.270;2023-03-13T23:09:24;99772.91;;;-5.75;69.36
55347;BME280;41218;55.700;38.270;2023-03-13T23:14:24;99771.81;;;-5.74;69.05
55347;BME280;41218;55.700;38.270;2023-03-13T23:19:28;99755.41;;;-5.77;69.56
55347;BME280;41218;55.700;38.270;2023-03-13T23:24:28;99745.44;;;-5.77;69.75
55347;BME280;41218;55.700;38.270;2023-03-13T23:29:29;99752.72;;;-5.77;68.83
55347;BME280;41218;55.700;38.270;2023-03-13T23:34:29;99738.16;;;-5.76;69.37
55347;BME280;41218;55.700;38.270;2023-03-13T23:39:30;99730.09;;;-5.76;69.00
55347;BME280;41218;55.700;38.270;2023-03-13T23:44:31;99718.78;;;-5.78;69.46
55347;BME280;41218;55.700;38.270;2023-03-13T23:49:31;99721.50;;;-5.73;69.84
55347;BME280;41218;55.700;38.270;2023-03-13T23:54:32;99704.25;;;-5.72;69.43
55347;BME280;41218;55.700;38.270;2023-03-13T23:59:32;99697.22;;;-5.78;68.99
